Time;durP1;ratioP1;P1;durP2;ratioP2;P2;SDS_P1;SDS_P2;PMS_P1;PMS_P2;Temp;Humidity;BMP_temperature;BMP_pressure;BME280_temperature;BME280_humidity;BME280_pressure;Samples;Min_cycle;Max_cycle;Signal;HPM_P1;HPM_P2
2021/06/20 00:01:19;;;;;;;7.70;7.00;;;24.60;99.90;;;;;;5033792;28;20392;-66
2021/06/20 00:03:45;;;;;;;8.47;6.63;;;24.60;99.90;;;;;;5035599;28;20186;-67
2021/06/20 00:06:31;;;;;;;6.80;6.17;;;24.70;99.90;;;;;;5033485;28;20683;-66
2021/06/20 00:08:59;;;;;;;6.57;5.97;;;24.70;99.90;;;;;;5034713;28;20197;-68
2021/06/20 00:11:26;;;;;;;8.80;6.90;;;24.70;99.90;;;;;;5034844;28;20580;-68
2021/06/20 00:13:52;;;;;;;15.40;7.10;;;24.70;99.90;;;;;;5034922;28;20458;-68
2021/06/20 00:16:18;;;;;;;6.87;6.27;;;24.80;99.90;;;;;;5035229;28;20445;-68
2021/06/20 00:18:45;;;;;;;6.77;6.27;;;24.80;99.90;;;;;;5034316;28;20443;-67
2021/06/20 00:21:11;;;;;;;7.37;6.67;;;24.80;99.90;;;;;;5034588;28;20423;-67
2021/06/20 00:23:36;;;;;;;7.43;6.60;;;24.90;99.90;;;;;;5035049;28;20412;-66
2021/06/20 00:26:03;;;;;;;7.30;6.70;;;24.90;99.90;;;;;;5034645;28;20446;-68
2021/06/20 00:28:29;;;;;;;7.67;6.87;;;24.90;99.90;;;;;;5034212;28;20223;-68
2021/06/20 00:30:55;;;;;;;8.87;6.87;;;24.90;99.90;;;;;;5034447;28;20511;-68
2021/06/20 00:33:20;;;;;;;8.03;7.30;;;25.00;99.90;;;;;;5034826;28;20516;-68
2021/06/20 00:35:46;;;;;;;6.93;6.30;;;24.90;99.90;;;;;;5034519;28;20202;-68
2021/06/20 00:38:12;;;;;;;7.73;7.03;;;24.90;99.70;;;;;;5033699;28;20185;-67
2021/06/20 00:40:38;;;;;;;7.43;6.73;;;24.90;99.90;;;;;;5034712;28;20164;-67
2021/06/20 00:43:03;;;;;;;7.43;6.77;;;24.90;99.90;;;;;;5034407;28;20211;-67
2021/06/20 00:45:29;;;;;;;11.30;6.10;;;24.90;99.90;;;;;;5033410;28;20183;-67
2021/06/20 00:47:56;;;;;;;7.37;6.67;;;24.80;99.90;;;;;;5033904;28;20235;-67
2021/06/20 00:50:24;;;;;;;7.97;7.33;;;24.80;99.90;;;;;;5034428;28;20193;-67
2021/06/20 00:52:50;;;;;;;7.50;6.80;;;24.80;99.90;;;;;;5032965;28;20448;-67
2021/06/20 00:55:15;;;;;;;8.90;6.23;;;24.80;99.90;;;;;;5034433;28;20435;-67
2021/06/20 00:57:41;;;;;;;7.23;6.63;;;24.80;99.90;;;;;;5033864;28;20195;-67
2021/06/20 01:00:10;;;;;;;10.10;7.60;;;24.80;99.90;;;;;;5034302;28;20529;-67
2021/06/20 01:02:36;;;;;;;8.03;7.23;;;24.80;99.90;;;;;;5034018;28;20180;-68
2021/06/20 01:05:06;;;;;;;7.23;6.53;;;24.90;99.90;;;;;;5033989;28;20525;-67
2021/06/20 01:07:32;;;;;;;8.13;6.43;;;24.90;99.90;;;;;;5033503;28;20433;-67
2021/06/20 01:09:57;;;;;;;7.70;6.80;;;24.90;99.70;;;;;;5033627;28;20458;-67
2021/06/20 01:12:23;;;;;;;7.07;6.47;;;25.00;99.60;;;;;;5034030;28;20379;-67
2021/06/20 01:14:50;;;;;;;5.57;5.10;;;25.00;99.50;;;;;;5033579;28;20214;-67
2021/06/20 01:17:18;;;;;;;7.30;6.37;;;25.10;99.70;;;;;;5033740;28;20178;-66
2021/06/20 01:19:44;;;;;;;7.10;6.60;;;25.10;99.40;;;;;;5033265;28;20834;-67
2021/06/20 01:22:25;;;;;;;8.53;6.70;;;25.20;99.40;;;;;;5033730;28;20425;-67
2021/06/20 01:24:56;;;;;;;10.13;6.33;;;25.30;99.20;;;;;;5033544;28;20416;-66
2021/06/20 01:27:28;;;;;;;9.00;6.53;;;25.40;98.60;;;;;;5033559;28;20405;-66
2021/06/20 01:29:54;;;;;;;7.10;5.50;;;25.50;98.40;;;;;;5033156;28;20471;-65
2021/06/20 01:32:19;;;;;;;9.50;5.50;;;25.60;98.00;;;;;;5033831;28;20405;-63
2021/06/20 01:34:46;;;;;;;8.63;5.10;;;25.70;97.50;;;;;;5033378;28;20174;-65
2021/06/20 01:37:14;;;;;;;6.33;5.73;;;25.80;97.20;;;;;;5031811;28;20578;-65
2021/06/20 01:39:40;;;;;;;10.60;5.67;;;25.90;96.90;;;;;;5033349;28;20407;-65
2021/06/20 01:42:07;;;;;;;5.97;4.70;;;25.90;96.60;;;;;;5033812;28;20604;-66
2021/06/20 01:44:51;;;;;;;8.27;4.50;;;26.00;96.50;;;;;;5033548;28;20417;-65
2021/06/20 01:47:17;;;;;;;11.57;5.10;;;26.00;96.00;;;;;;5036226;28;20936;-65
2021/06/20 01:49:43;;;;;;;12.30;4.87;;;26.10;96.00;;;;;;5038881;28;20449;-66
2021/06/20 01:52:09;;;;;;;13.53;5.37;;;26.10;95.90;;;;;;5033715;28;20417;-64
2021/06/20 01:54:36;;;;;;;11.90;5.50;;;26.20;95.60;;;;;;5031897;28;20865;-64
2021/06/20 01:57:04;;;;;;;9.50;5.60;;;26.20;95.60;;;;;;5032003;28;20425;-64
2021/06/20 01:59:29;;;;;;;6.73;4.93;;;26.20;95.60;;;;;;5033007;28;20477;-63
2021/06/20 02:01:55;;;;;;;10.63;5.40;;;26.10;95.80;;;;;;5033292;28;20405;-64
2021/06/20 02:04:20;;;;;;;11.10;5.20;;;26.10;95.50;;;;;;5032531;28;20182;-64
2021/06/20 02:06:46;;;;;;;6.53;4.27;;;26.10;95.60;;;;;;5032169;28;20620;-64
2021/06/20 02:09:13;;;;;;;11.43;6.27;;;26.00;95.70;;;;;;5032649;28;20204;-64
2021/06/20 02:11:38;;;;;;;10.57;5.33;;;26.00;95.70;;;;;;5033325;28;20213;-64
2021/06/20 02:14:04;;;;;;;7.90;5.00;;;25.90;95.80;;;;;;5033099;28;20493;-64
2021/06/20 02:16:29;;;;;;;7.00;4.37;;;25.90;96.00;;;;;;5033112;28;20529;-64
2021/06/20 02:18:55;;;;;;;11.77;5.33;;;25.80;96.00;;;;;;5032386;28;20200;-63
2021/06/20 02:21:21;;;;;;;7.33;4.53;;;25.80;95.90;;;;;;5032385;28;20204;-65
2021/06/20 02:23:46;;;;;;;14.97;5.03;;;25.80;95.90;;;;;;5033232;28;20236;-66
2021/06/20 02:26:12;;;;;;;7.40;4.50;;;25.90;95.90;;;;;;5032316;28;20173;-65
2021/06/20 02:28:38;;;;;;;8.80;4.50;;;25.90;95.80;;;;;;5032722;28;20274;-65
2021/06/20 02:31:03;;;;;;;8.40;4.17;;;25.80;95.90;;;;;;5032787;28;20221;-65
2021/06/20 02:33:29;;;;;;;10.60;5.00;;;25.90;95.90;;;;;;5033001;28;20219;-65
2021/06/20 02:35:55;;;;;;;8.80;4.63;;;25.80;95.90;;;;;;5031709;28;20268;-66
2021/06/20 02:38:20;;;;;;;7.70;4.13;;;25.90;95.90;;;;;;5032637;28;20272;-64
2021/06/20 02:40:46;;;;;;;7.20;4.40;;;25.90;95.70;;;;;;5032500;28;20253;-64
2021/06/20 02:43:11;;;;;;;12.57;5.60;;;25.90;95.60;;;;;;5033094;28;20186;-64
2021/06/20 02:45:37;;;;;;;9.83;4.80;;;25.90;95.80;;;;;;5032878;28;20609;-64
2021/06/20 02:48:03;;;;;;;9.93;4.33;;;25.90;95.70;;;;;;5032748;28;20636;-64
2021/06/20 02:50:29;;;;;;;7.83;4.60;;;25.90;95.90;;;;;;5032223;28;20268;-64
2021/06/20 02:52:55;;;;;;;12.97;5.53;;;25.90;95.90;;;;;;5032933;28;20459;-64
2021/06/20 02:55:21;;;;;;;13.87;5.73;;;25.80;96.10;;;;;;5032515;28;20201;-64
2021/06/20 02:57:46;;;;;;;6.17;4.37;;;25.70;96.20;;;;;;5032523;28;20265;-64
2021/06/20 03:00:13;;;;;;;15.43;5.43;;;25.60;96.70;;;;;;5032286;28;20531;-64
2021/06/20 03:02:39;;;;;;;9.60;4.87;;;25.50;97.60;;;;;;5032957;28;20179;-64
2021/06/20 03:05:05;;;;;;;6.70;4.80;;;25.40;98.60;;;;;;5032414;28;20570;-64
2021/06/20 03:07:31;;;;;;;13.80;5.33;;;25.30;99.60;;;;;;5031124;28;20450;-65
2021/06/20 03:09:57;;;;;;;10.70;5.30;;;25.20;99.90;;;;;;5031997;28;20464;-64
2021/06/20 03:12:23;;;;;;;7.90;5.03;;;25.10;99.90;;;;;;5031004;28;20188;-64
2021/06/20 03:14:49;;;;;;;11.30;5.10;;;25.00;99.90;;;;;;5032739;28;20620;-64
2021/06/20 03:17:16;;;;;;;9.40;5.13;;;24.90;99.90;;;;;;5035908;28;20808;-64
2021/06/20 03:19:43;;;;;;;10.33;4.60;;;24.80;99.90;;;;;;5035562;28;20444;-64
2021/06/20 03:22:09;;;;;;;8.30;4.87;;;24.80;99.90;;;;;;5036138;28;20431;-64
2021/06/20 03:24:36;;;;;;;10.83;5.63;;;24.70;99.90;;;;;;5035852;28;20405;-64
2021/06/20 03:27:03;;;;;;;9.00;5.33;;;24.60;99.90;;;;;;5035994;28;20898;-64
2021/06/20 03:29:29;;;;;;;10.73;4.60;;;24.50;99.90;;;;;;5035382;28;20474;-64
2021/06/20 03:31:55;;;;;;;12.03;5.53;;;24.50;99.90;;;;;;5036033;28;20395;-64
2021/06/20 03:34:21;;;;;;;6.70;5.07;;;24.40;99.90;;;;;;5035277;28;20207;-64
2021/06/20 03:36:47;;;;;;;7.13;5.40;;;24.30;99.90;;;;;;5035879;28;20832;-64
2021/06/20 03:39:13;;;;;;;11.10;5.90;;;24.30;99.90;;;;;;5033891;28;20570;-64
2021/06/20 03:41:39;;;;;;;5.43;4.87;;;24.20;99.90;;;;;;5036223;28;20168;-64
2021/06/20 03:44:09;;;;;;;5.77;4.80;;;24.20;99.90;;;;;;5035342;28;20184;-64
2021/06/20 03:46:35;;;;;;;11.30;5.00;;;24.20;99.90;;;;;;5035864;28;20420;-64
2021/06/20 03:49:01;;;;;;;8.30;5.17;;;24.10;99.90;;;;;;5035098;28;20837;-64
2021/06/20 03:51:27;;;;;;;6.70;5.03;;;24.10;99.90;;;;;;5035410;28;20433;-65
2021/06/20 03:53:53;;;;;;;9.53;4.93;;;24.10;99.90;;;;;;5035075;28;20458;-64
2021/06/20 03:56:18;;;;;;;9.23;5.63;;;24.00;99.90;;;;;;5035815;28;20198;-65
2021/06/20 03:58:44;;;;;;;8.80;5.17;;;24.00;99.90;;;;;;5034741;28;20600;-64
2021/06/20 04:01:10;;;;;;;13.63;6.67;;;23.90;99.90;;;;;;5034505;28;20181;-64
2021/06/20 04:03:35;;;;;;;11.20;5.33;;;23.80;99.90;;;;;;5035102;28;20581;-64
2021/06/20 04:06:01;;;;;;;7.67;4.40;;;23.80;99.90;;;;;;5034912;28;20706;-64
2021/06/20 04:08:28;;;;;;;7.17;4.90;;;23.90;99.90;;;;;;5033647;28;20183;-65
2021/06/20 04:10:54;;;;;;;6.67;5.37;;;23.90;99.90;;;;;;5034949;28;20189;-65
2021/06/20 04:13:19;;;;;;;6.70;5.30;;;23.80;99.90;;;;;;5035164;28;20461;-64
2021/06/20 04:15:45;;;;;;;11.40;6.40;;;23.90;99.90;;;;;;5033426;28;20184;-64
2021/06/20 04:18:11;;;;;;;6.60;4.97;;;23.90;99.90;;;;;;5034755;28;20176;-64
2021/06/20 04:20:37;;;;;;;10.57;5.30;;;23.80;99.90;;;;;;5034921;28;20182;-64
2021/06/20 04:23:02;;;;;;;11.30;5.40;;;23.90;99.90;;;;;;5035270;28;20279;-65
2021/06/20 04:25:28;;;;;;;8.47;4.67;;;23.90;99.90;;;;;;5033992;28;20541;-64
2021/06/20 04:27:54;;;;;;;9.37;5.63;;;23.90;99.90;;;;;;5034650;28;20291;-65
2021/06/20 04:30:22;;;;;;;8.53;5.47;;;24.00;99.90;;;;;;5034430;28;20234;-64
2021/06/20 04:32:49;;;;;;;7.00;5.30;;;24.00;99.90;;;;;;5034936;28;20229;-64
2021/06/20 04:35:16;;;;;;;11.00;6.20;;;24.00;99.90;;;;;;5034413;28;20438;-64
2021/06/20 04:37:42;;;;;;;9.60;5.40;;;24.10;99.90;;;;;;5034414;28;20494;-64
2021/06/20 04:40:12;;;;;;;8.70;5.43;;;24.20;99.90;;;;;;5034341;28;20951;-64
2021/06/20 04:42:39;;;;;;;6.10;4.80;;;24.20;99.90;;;;;;5034887;28;20414;-64
2021/06/20 04:45:07;;;;;;;5.83;5.27;;;24.20;99.90;;;;;;5034155;28;20783;-64
2021/06/20 04:47:34;;;;;;;11.30;5.73;;;24.20;99.90;;;;;;5033094;28;20419;-64
2021/06/20 04:50:00;;;;;;;14.83;5.87;;;24.20;99.90;;;;;;5034117;28;20438;-64
2021/06/20 04:52:26;;;;;;;10.83;5.67;;;24.20;99.90;;;;;;5034188;28;20419;-64
2021/06/20 04:54:52;;;;;;;5.67;4.70;;;24.10;99.90;;;;;;5034204;28;20448;-65
2021/06/20 04:57:20;;;;;;;8.93;5.37;;;24.00;99.90;;;;;;5034156;28;20411;-64
2021/06/20 04:59:46;;;;;;;6.73;5.43;;;24.00;99.90;;;;;;5034075;28;20822;-64
2021/06/20 05:02:13;;;;;;;9.20;4.93;;;24.00;99.90;;;;;;5034097;28;20440;-64
2021/06/20 05:04:40;;;;;;;7.40;5.00;;;24.10;99.90;;;;;;5034034;28;20805;-64
2021/06/20 05:07:06;;;;;;;8.73;5.23;;;24.20;99.90;;;;;;5033567;28;20530;-65
2021/06/20 05:09:31;;;;;;;11.90;5.70;;;24.30;99.90;;;;;;5033552;28;20557;-64
2021/06/20 05:11:57;;;;;;;6.47;5.53;;;24.50;99.90;;;;;;5034025;28;20185;-64
2021/06/20 05:14:23;;;;;;;4.73;4.30;;;24.70;99.90;;;;;;5033944;28;20282;-63
2021/06/20 05:16:48;;;;;;;8.27;5.40;;;24.80;99.90;;;;;;5033972;28;20182;-64
2021/06/20 05:19:14;;;;;;;7.60;4.50;;;24.80;99.90;;;;;;5033100;28;20621;-64
2021/06/20 05:21:40;;;;;;;6.77;4.93;;;24.80;99.90;;;;;;5033597;28;20180;-64
2021/06/20 05:24:06;;;;;;;9.67;5.20;;;24.90;99.90;;;;;;5033638;28;20174;-64
2021/06/20 05:26:31;;;;;;;7.33;5.30;;;25.00;99.90;;;;;;5032041;28;20190;-64
2021/06/20 05:28:58;;;;;;;9.90;4.27;;;25.00;99.90;;;;;;5033025;28;20201;-64
2021/06/20 05:31:23;;;;;;;9.03;6.47;;;25.00;99.90;;;;;;5033493;28;20417;-64
2021/06/20 05:33:49;;;;;;;6.77;4.50;;;24.90;99.90;;;;;;5033141;28;20471;-64
2021/06/20 05:36:15;;;;;;;8.00;6.40;;;24.80;99.90;;;;;;5033779;28;20170;-65
2021/06/20 05:38:41;;;;;;;5.80;5.23;;;24.80;99.90;;;;;;5032509;28;20580;-63
2021/06/20 05:41:06;;;;;;;8.93;7.07;;;24.70;99.90;;;;;;5033095;28;20181;-64
2021/06/20 05:43:32;;;;;;;8.97;4.90;;;24.60;99.90;;;;;;5033448;28;20172;-65
2021/06/20 05:45:58;;;;;;;6.83;5.53;;;24.60;99.90;;;;;;5033703;28;20230;-64
2021/06/20 05:48:24;;;;;;;13.83;5.83;;;24.70;99.90;;;;;;5032803;28;20425;-64
2021/06/20 05:50:49;;;;;;;9.30;5.37;;;24.90;99.90;;;;;;5033096;28;20181;-64
2021/06/20 05:53:15;;;;;;;6.93;4.43;;;24.90;99.90;;;;;;5033125;28;20597;-64
2021/06/20 05:55:41;;;;;;;5.70;3.80;;;25.10;99.90;;;;;;5032805;28;20268;-64
2021/06/20 05:58:06;;;;;;;6.97;4.97;;;25.10;99.90;;;;;;5032866;28;20231;-64
2021/06/20 06:00:32;;;;;;;10.30;4.67;;;25.20;99.90;;;;;;5033237;28;20707;-63
2021/06/20 06:02:59;;;;;;;5.13;3.53;;;25.30;99.90;;;;;;5033347;28;20217;-64
2021/06/20 06:05:25;;;;;;;5.67;4.50;;;25.40;99.90;;;;;;5032972;28;20170;-63
2021/06/20 06:07:51;;;;;;;9.23;4.33;;;25.40;99.90;;;;;;5033074;28;20417;-62
2021/06/20 06:10:17;;;;;;;7.70;5.30;;;25.60;99.90;;;;;;5032770;28;20539;-62
2021/06/20 06:12:43;;;;;;;9.57;4.50;;;25.60;99.90;;;;;;5033092;28;20205;-62
2021/06/20 06:15:10;;;;;;;10.80;6.80;;;25.70;99.90;;;;;;5032960;28;20444;-62
2021/06/20 06:17:36;;;;;;;12.07;5.67;;;25.80;99.90;;;;;;5032604;28;20177;-62
2021/06/20 06:20:02;;;;;;;9.33;4.60;;;25.90;99.90;;;;;;5032911;28;20453;-63
2021/06/20 06:22:28;;;;;;;7.23;4.93;;;26.20;99.90;;;;;;5033254;28;20501;-63
2021/06/20 06:24:54;;;;;;;5.27;4.77;;;26.50;99.90;;;;;;5032888;28;20525;-62
2021/06/20 06:27:20;;;;;;;7.80;6.10;;;26.90;99.90;;;;;;5032729;28;20184;-64
2021/06/20 06:29:46;;;;;;;8.83;4.50;;;27.30;99.90;;;;;;5032678;28;20930;-64
2021/06/20 06:32:12;;;;;;;9.47;7.03;;;27.70;99.90;;;;;;5032718;28;20434;-64
2021/06/20 06:34:39;;;;;;;6.87;4.40;;;27.90;99.90;;;;;;5031834;28;20441;-64
2021/06/20 06:37:05;;;;;;;13.30;5.47;;;28.00;99.90;;;;;;5032890;28;20650;-64
2021/06/20 06:39:31;;;;;;;8.47;5.00;;;27.80;99.90;;;;;;5032122;28;20525;-65
2021/06/20 06:41:58;;;;;;;10.63;4.77;;;27.60;99.90;;;;;;5033108;28;20408;-67
2021/06/20 06:44:25;;;;;;;10.23;5.17;;;27.70;99.90;;;;;;5032326;28;20446;-65
2021/06/20 06:46:51;;;;;;;4.37;4.00;;;27.60;99.90;;;;;;5032632;28;20788;-65
2021/06/20 06:49:17;;;;;;;11.10;5.13;;;27.50;99.90;;;;;;5033206;28;20445;-68
2021/06/20 06:51:43;;;;;;;6.87;3.63;;;27.60;99.90;;;;;;5036671;28;20891;-66
2021/06/20 06:54:09;;;;;;;5.20;4.53;;;27.70;99.90;;;;;;5034377;28;20216;-66
2021/06/20 06:56:35;;;;;;;4.60;3.33;;;27.80;99.60;;;;;;5036059;28;20180;-64
2021/06/20 06:59:01;;;;;;;6.40;3.77;;;27.70;98.50;;;;;;5035975;28;20545;-65
2021/06/20 07:01:28;;;;;;;6.60;4.50;;;27.40;98.80;;;;;;5034285;28;20179;-65
2021/06/20 07:03:54;;;;;;;3.93;3.33;;;27.10;99.50;;;;;;5034493;28;20999;-64
2021/06/20 07:06:19;;;;;;;8.43;3.80;;;26.90;99.30;;;;;;5035020;28;20457;-65
2021/06/20 07:08:46;;;;;;;5.90;3.80;;;26.80;99.80;;;;;;5035404;28;20445;-65
2021/06/20 07:11:12;;;;;;;8.60;3.97;;;26.70;99.90;;;;;;5036079;28;20202;-68
2021/06/20 07:13:37;;;;;;;4.40;3.10;;;26.70;99.90;;;;;;5035605;28;20970;-67
2021/06/20 07:16:04;;;;;;;10.10;4.30;;;26.70;99.90;;;;;;5035472;28;20424;-66
2021/06/20 07:18:29;;;;;;;13.33;3.20;;;26.80;99.90;;;;;;5034946;28;20191;-67
2021/06/20 07:20:55;;;;;;;6.50;3.83;;;26.60;99.90;;;;;;5035952;28;20425;-63
2021/06/20 07:23:21;;;;;;;3.37;3.03;;;26.40;99.90;;;;;;5035865;28;20181;-66
2021/06/20 07:25:46;;;;;;;4.20;2.77;;;26.30;99.90;;;;;;5035652;28;21010;-65
2021/06/20 07:28:12;;;;;;;5.87;3.30;;;26.10;99.90;;;;;;5035194;28;20189;-63
2021/06/20 07:30:38;;;;;;;10.30;3.47;;;26.00;99.90;;;;;;5035731;28;20174;-64
2021/06/20 07:33:04;;;;;;;6.13;2.87;;;26.00;99.90;;;;;;5035392;28;20660;-65
2021/06/20 07:35:30;;;;;;;5.03;3.40;;;26.00;99.90;;;;;;5035826;28;20409;-67
2021/06/20 07:37:56;;;;;;;3.83;3.27;;;26.00;99.90;;;;;;5034862;28;20420;-67
2021/06/20 07:40:22;;;;;;;6.67;3.20;;;26.00;99.90;;;;;;5035633;28;20561;-65
2021/06/20 07:42:49;;;;;;;4.20;3.00;;;26.20;99.90;;;;;;5035524;28;20178;-75
2021/06/20 07:45:16;;;;;;;4.60;2.90;;;26.20;99.90;;;;;;5035215;28;20181;-75
2021/06/20 07:47:43;;;;;;;4.27;3.20;;;26.10;99.90;;;;;;5034989;28;20930;-76
2021/06/20 07:50:11;;;;;;;4.03;3.30;;;26.00;99.90;;;;;;5035588;28;20508;-73
2021/06/20 07:52:37;;;;;;;4.33;3.43;;;26.00;99.90;;;;;;5035089;28;20422;-69
2021/06/20 07:55:04;;;;;;;6.07;3.17;;;25.90;99.90;;;;;;5035298;28;20432;-70
2021/06/20 07:57:30;;;;;;;6.93;3.27;;;25.70;99.90;;;;;;5034753;28;20546;-70
2021/06/20 07:59:56;;;;;;;5.03;3.30;;;25.70;99.90;;;;;;5034948;28;20878;-70
2021/06/20 08:02:21;;;;;;;10.93;3.67;;;25.60;99.90;;;;;;5034265;28;20205;-72
2021/06/20 08:04:47;;;;;;;7.90;4.30;;;25.60;99.90;;;;;;5035347;28;20182;-71
2021/06/20 08:07:14;;;;;;;4.70;3.43;;;25.50;99.90;;;;;;5033463;28;20548;-70
2021/06/20 08:09:39;;;;;;;3.23;2.80;;;25.40;99.90;;;;;;5035116;28;20456;-71
2021/06/20 08:12:07;;;;;;;4.17;3.00;;;25.30;99.90;;;;;;5035003;28;20433;-71
2021/06/20 08:14:33;;;;;;;5.50;3.17;;;25.20;99.90;;;;;;5034885;28;20599;-72
2021/06/20 08:16:59;;;;;;;6.30;3.40;;;25.00;99.90;;;;;;5035287;28;20421;-69
2021/06/20 08:19:25;;;;;;;4.43;3.00;;;25.00;99.90;;;;;;5033525;28;20471;-70
2021/06/20 08:21:50;;;;;;;6.10;3.67;;;24.90;99.90;;;;;;5034788;28;20565;-70
2021/06/20 08:24:16;;;;;;;4.13;3.07;;;24.80;99.90;;;;;;5034823;28;20180;-71
2021/06/20 08:26:42;;;;;;;5.30;3.10;;;24.80;99.90;;;;;;5034684;28;20170;-70
2021/06/20 08:29:08;;;;;;;5.10;2.50;;;24.70;99.90;;;;;;5033247;28;20193;-71
2021/06/20 08:31:34;;;;;;;6.53;3.40;;;24.80;99.90;;;;;;5034825;28;20174;-71
2021/06/20 08:34:00;;;;;;;4.53;4.10;;;24.90;99.90;;;;;;5035114;28;20203;-70
2021/06/20 08:36:27;;;;;;;3.03;2.70;;;25.10;99.90;;;;;;5035045;28;20808;-71
2021/06/20 08:38:54;;;;;;;9.60;2.60;;;25.20;99.90;;;;;;5032716;28;20811;-70
2021/06/20 08:41:22;;;;;;;4.90;3.20;;;25.40;99.90;;;;;;5034859;28;20413;-69
2021/06/20 08:43:49;;;;;;;4.13;2.30;;;25.50;99.90;;;;;;5034510;28;20402;-71
2021/06/20 08:46:15;;;;;;;3.17;2.87;;;25.60;99.90;;;;;;5034653;28;20432;-72
2021/06/20 08:48:41;;;;;;;4.80;2.40;;;25.60;99.90;;;;;;5032676;28;20420;-70
2021/06/20 08:51:07;;;;;;;5.40;3.10;;;25.70;99.90;;;;;;5034751;28;20173;-71
2021/06/20 08:53:33;;;;;;;3.23;2.93;;;25.70;99.90;;;;;;5034272;28;20455;-71
2021/06/20 08:55:59;;;;;;;4.90;3.00;;;25.70;99.90;;;;;;5033232;28;20911;-71
2021/06/20 08:58:27;;;;;;;4.53;3.13;;;25.80;99.90;;;;;;5033614;28;20198;-70
2021/06/20 09:00:55;;;;;;;6.77;2.90;;;25.90;99.90;;;;;;5034149;28;20553;-72
2021/06/20 09:03:21;;;;;;;3.60;3.10;;;26.00;99.90;;;;;;5034088;28;20400;-71
2021/06/20 09:06:00;;;;;;;5.10;3.57;;;26.20;99.90;;;;;;5034591;28;20409;-70
2021/06/20 09:08:27;;;;;;;6.13;3.83;;;26.30;99.90;;;;;;5033230;28;20182;-73
2021/06/20 09:10:53;;;;;;;7.87;3.00;;;26.30;99.90;;;;;;5034065;28;20444;-70
2021/06/20 09:13:19;;;;;;;3.17;2.83;;;26.40;99.90;;;;;;5032778;28;20428;-71
2021/06/20 09:15:44;;;;;;;3.90;2.70;;;26.50;99.90;;;;;;5033722;28;20503;-70
2021/06/20 09:18:10;;;;;;;3.77;2.67;;;26.50;99.90;;;;;;5029193;28;20175;-69
2021/06/20 09:20:45;;;;;;;6.37;2.73;;;26.50;99.90;;;;;;5020185;28;20171;-70
2021/06/20 09:23:13;;;;;;;3.20;2.77;;;26.50;99.70;;;;;;5034831;28;20415;-70
2021/06/20 09:25:43;;;;;;;3.83;2.50;;;26.50;99.70;;;;;;5033413;28;20425;-70
2021/06/20 09:28:11;;;;;;;3.33;2.97;;;26.50;99.60;;;;;;5033688;28;20401;-70
2021/06/20 09:30:44;;;;;;;3.27;2.90;;;26.60;99.70;;;;;;5032347;28;20938;-71
2021/06/20 09:33:10;;;;;;;3.20;2.57;;;26.70;99.90;;;;;;5033895;28;20506;-71
2021/06/20 09:35:45;;;;;;;3.73;3.13;;;26.80;99.80;;;;;;5033304;28;20508;-70
2021/06/20 09:38:18;;;;;;;5.77;3.27;;;26.90;99.50;;;;;;5032947;28;20177;-70
2021/06/20 09:40:44;;;;;;;3.80;2.87;;;27.00;99.40;;;;;;5033389;28;20421;-71
2021/06/20 09:43:12;;;;;;;3.33;3.03;;;26.90;99.60;;;;;;5032478;28;20741;-69
2021/06/20 09:45:43;;;;;;;3.43;3.00;;;26.90;99.10;;;;;;5032162;28;20440;-70
2021/06/20 09:48:08;;;;;;;6.20;5.60;;;27.00;99.40;;;;;;5032777;28;20430;-69
2021/06/20 09:50:39;;;;;;;8.77;7.73;;;27.20;98.90;;;;;;5033102;28;20927;-70
2021/06/20 09:53:06;;;;;;;9.33;3.90;;;27.40;98.80;;;;;;5033268;28;20191;-71
2021/06/20 09:55:34;;;;;;;4.00;3.27;;;27.60;99.10;;;;;;5033269;28;20423;-71
2021/06/20 09:58:01;;;;;;;6.67;3.67;;;27.70;98.40;;;;;;5033096;28;20466;-71
2021/06/20 10:00:36;;;;;;;3.40;3.10;;;27.80;97.60;;;;;;5032955;28;20792;-71
2021/06/20 10:03:02;;;;;;;8.57;3.47;;;27.90;98.10;;;;;;5031604;28;20422;-71
2021/06/20 10:05:27;;;;;;;8.60;4.37;;;28.00;97.40;;;;;;5033078;28;20427;-71
2021/06/20 10:07:53;;;;;;;6.30;2.80;;;28.10;97.20;;;;;;5033004;28;20182;-71
2021/06/20 10:10:19;;;;;;;5.20;2.53;;;28.10;97.10;;;;;;5031421;28;20211;-70
2021/06/20 10:12:45;;;;;;;4.00;3.30;;;27.70;97.10;;;;;;5033185;28;20180;-71
2021/06/20 10:15:14;;;;;;;3.60;2.63;;;27.50;97.50;;;;;;5032837;28;20172;-70
2021/06/20 10:17:49;;;;;;;4.70;3.03;;;27.60;97.50;;;;;;5032479;28;20637;-71
2021/06/20 10:20:16;;;;;;;3.83;2.50;;;27.50;97.60;;;;;;5033118;28;20442;-71
2021/06/20 10:22:45;;;;;;;2.43;2.10;;;27.60;97.30;;;;;;5033281;28;20503;-71
2021/06/20 10:25:37;;;;;;;8.00;2.80;;;27.60;97.10;;;;;;5035389;28;20506;-70
2021/06/20 10:28:12;;;;;;;4.13;2.70;;;27.70;97.30;;;;;;5037059;28;20422;-70
2021/06/20 10:30:39;;;;;;;3.30;2.70;;;27.70;97.20;;;;;;5036606;28;20412;-71
2021/06/20 10:33:09;;;;;;;4.17;2.60;;;27.70;96.80;;;;;;5036602;28;20454;-70
2021/06/20 10:35:35;;;;;;;3.40;2.67;;;27.60;96.40;;;;;;5036577;28;20467;-71
2021/06/20 10:38:02;;;;;;;2.83;2.57;;;27.50;96.10;;;;;;5036126;28;20914;-71
2021/06/20 10:40:45;;;;;;;3.13;2.57;;;27.50;95.90;;;;;;5035443;28;20440;-70
2021/06/20 10:43:20;;;;;;;6.53;2.57;;;27.40;96.00;;;;;;5035420;28;20428;-72
2021/06/20 10:45:47;;;;;;;5.63;3.60;;;27.40;96.10;;;;;;5037113;28;20416;-71
2021/06/20 10:48:20;;;;;;;2.30;2.10;;;27.50;96.20;;;;;;5035809;28;21057;-71
2021/06/20 10:50:55;;;;;;;5.50;3.70;;;27.50;96.20;;;;;;5036877;28;20409;-71
2021/06/20 10:53:22;;;;;;;5.17;2.90;;;27.50;95.90;;;;;;5036525;28;20534;-71
2021/06/20 10:55:54;;;;;;;2.53;1.87;;;27.60;94.40;;;;;;5036939;28;20424;-70
2021/06/20 10:58:28;;;;;;;5.60;4.90;;;27.60;94.60;;;;;;5034542;28;20407;-72
2021/06/20 11:01:09;;;;;;;2.50;2.17;;;27.60;94.10;;;;;;5036658;28;20412;-70
2021/06/20 11:03:36;;;;;;;2.50;2.23;;;27.50;94.30;;;;;;5016610;28;20916;-72
2021/06/20 11:06:05;;;;;;;2.10;1.93;;;27.50;95.10;;;;;;5016481;28;20398;-70
2021/06/20 11:08:39;;;;;;;2.80;2.23;;;27.60;94.90;;;;;;5035827;28;20543;-71
2021/06/20 11:11:52;;;;;;;4.77;2.20;;;27.90;94.10;;;;;;5035957;28;20578;-69
2021/06/20 11:14:20;;;;;;;3.87;2.70;;;28.20;94.30;;;;;;4972616;28;20468;-71
2021/06/20 11:16:50;;;;;;;2.97;2.77;;;28.50;94.00;;;;;;5033178;28;20424;-71
2021/06/20 11:19:24;;;;;;;5.33;3.67;;;28.80;93.70;;;;;;5035735;28;20429;-71
2021/06/20 11:21:53;;;;;;;4.80;2.20;;;29.10;92.80;;;;;;5039600;28;20429;-68
2021/06/20 11:24:27;;;;;;;6.30;2.83;;;29.20;92.50;;;;;;5039890;28;20388;-69
2021/06/20 11:27:02;;;;;;;4.37;2.40;;;29.20;92.50;;;;;;5037824;28;20427;-72
2021/06/20 11:29:46;;;;;;;5.77;2.73;;;29.40;92.50;;;;;;5037949;28;20407;-70
2021/06/20 11:32:15;;;;;;;3.70;2.40;;;29.50;92.30;;;;;;5035498;28;20403;-69
2021/06/20 11:34:49;;;;;;;3.93;2.60;;;29.80;92.70;;;;;;5035912;28;20449;-70
2021/06/20 11:37:17;;;;;;;6.70;2.77;;;29.90;91.80;;;;;;5034220;28;20429;-72
2021/06/20 11:39:46;;;;;;;4.90;3.30;;;30.00;91.60;;;;;;5035777;28;20774;-72
2021/06/20 11:42:12;;;;;;;3.57;2.17;;;30.10;91.60;;;;;;5034363;28;20421;-71
2021/06/20 11:44:38;;;;;;;3.07;2.80;;;30.30;91.00;;;;;;5035991;28;20430;-74
2021/06/20 11:47:03;;;;;;;4.33;2.20;;;30.50;90.50;;;;;;5034016;28;20181;-70
2021/06/20 11:49:29;;;;;;;4.93;2.93;;;30.60;90.00;;;;;;5035581;28;20232;-70
2021/06/20 11:51:56;;;;;;;6.90;3.10;;;30.80;90.70;;;;;;5035471;28;20185;-72
2021/06/20 11:54:27;;;;;;;3.03;2.50;;;30.80;90.30;;;;;;5035586;28;20661;-69
2021/06/20 11:57:04;;;;;;;2.47;2.27;;;30.60;88.50;;;;;;5035349;28;20429;-71
2021/06/20 11:59:41;;;;;;;6.80;3.17;;;30.60;90.10;;;;;;5033777;28;20440;-70
2021/06/20 12:02:14;;;;;;;5.37;3.10;;;30.50;90.50;;;;;;5029207;28;20424;-71
2021/06/20 12:04:45;;;;;;;9.70;4.57;;;30.50;90.50;;;;;;5035437;28;20429;-69
2021/06/20 12:07:11;;;;;;;4.43;3.30;;;30.50;90.40;;;;;;5035308;28;20759;-71
2021/06/20 12:09:38;;;;;;;2.70;2.50;;;30.50;90.20;;;;;;5033547;28;20487;-70
2021/06/20 12:12:09;;;;;;;3.47;3.20;;;30.50;87.90;;;;;;5035324;28;20811;-70
2021/06/20 12:14:35;;;;;;;3.50;2.40;;;30.60;88.30;;;;;;5035179;28;20496;-69
2021/06/20 12:17:02;;;;;;;7.07;3.13;;;30.80;89.00;;;;;;5035003;28;20439;-70
2021/06/20 12:19:36;;;;;;;5.63;2.80;;;30.90;88.70;;;;;;5015149;28;20847;-68
2021/06/20 12:22:11;;;;;;;3.97;1.93;;;30.80;88.50;;;;;;5015377;28;20708;-68
2021/06/20 12:24:44;;;;;;;5.37;2.60;;;30.60;85.00;;;;;;5031157;28;20458;-72
2021/06/20 12:27:14;;;;;;;5.10;2.23;;;30.60;84.20;;;;;;5034606;28;20412;-70
2021/06/20 12:29:40;;;;;;;3.40;2.53;;;30.50;84.20;;;;;;5034315;28;20739;-71
2021/06/20 12:32:12;;;;;;;4.73;1.80;;;30.50;84.90;;;;;;5034994;28;20415;-71
2021/06/20 12:34:46;;;;;;;3.17;2.87;;;30.50;79.20;;;;;;5030641;28;20795;-70
2021/06/20 12:37:12;;;;;;;5.37;2.50;;;30.40;82.90;;;;;;5015171;28;20430;-69
2021/06/20 12:39:56;;;;;;;4.67;2.63;;;30.30;83.60;;;;;;5034080;28;20836;-72
2021/06/20 12:42:23;;;;;;;4.50;2.60;;;30.20;83.60;;;;;;5033426;28;20399;-70
2021/06/20 12:44:54;;;;;;;10.20;2.70;;;30.10;84.40;;;;;;5034837;28;20440;-70
2021/06/20 12:47:32;;;;;;;7.47;3.60;;;29.90;84.30;;;;;;5033661;28;20464;-70